Time;durP1;ratioP1;P1;durP2;ratioP2;P2;SDS_P1;SDS_P2;PMS_P1;PMS_P2;Temp;Humidity;BMP_temperature;BMP_pressure;BME280_temperature;BME280_humidity;BME280_pressure;Samples;Min_cycle;Max_cycle;Signal;HPM_P1;HPM_P2
2022/04/10 00:00:15;;;;;;;6.87;6.17;;;7.30;99.90;;;;;;5052958;28;20676;-63
2022/04/10 00:02:41;;;;;;;6.90;6.20;;;7.40;99.90;;;;;;5052727;28;20200;-63
2022/04/10 00:05:07;;;;;;;7.73;5.77;;;7.40;99.90;;;;;;5053723;28;20189;-62
2022/04/10 00:07:33;;;;;;;6.67;6.03;;;7.40;99.90;;;;;;5056534;28;20181;-63
2022/04/10 00:09:59;;;;;;;8.70;6.20;;;7.40;99.90;;;;;;5056829;28;20184;-64
2022/04/10 00:12:24;;;;;;;10.87;6.20;;;7.30;99.90;;;;;;5056623;28;20177;-64
2022/04/10 00:14:50;;;;;;;8.93;5.60;;;7.40;99.90;;;;;;5056882;28;20219;-64
2022/04/10 00:17:16;;;;;;;8.17;6.20;;;7.40;99.90;;;;;;5056758;28;20173;-65
2022/04/10 00:19:43;;;;;;;7.23;5.77;;;7.30;99.90;;;;;;5056571;28;20188;-64
2022/04/10 00:22:09;;;;;;;6.30;5.47;;;7.30;99.90;;;;;;5056321;28;20173;-64
2022/04/10 00:24:34;;;;;;;8.27;5.90;;;7.20;99.90;;;;;;5056937;28;20177;-64
2022/04/10 00:27:00;;;;;;;5.73;5.23;;;7.30;99.90;;;;;;5056347;28;20161;-64
2022/04/10 00:29:26;;;;;;;7.97;6.30;;;7.30;99.90;;;;;;5056591;28;20683;-63
2022/04/10 00:31:51;;;;;;;8.20;5.73;;;7.40;99.90;;;;;;5056391;28;20170;-64
2022/04/10 00:34:17;;;;;;;7.10;6.30;;;7.40;99.90;;;;;;5056007;28;20209;-65
2022/04/10 00:36:43;;;;;;;6.30;5.70;;;7.30;99.90;;;;;;5056307;28;20181;-63
2022/04/10 00:39:08;;;;;;;6.87;5.70;;;7.30;99.90;;;;;;5056193;28;20173;-64
2022/04/10 00:41:34;;;;;;;7.13;5.93;;;7.30;99.90;;;;;;5056215;28;20568;-63
2022/04/10 00:44:03;;;;;;;7.53;5.70;;;7.30;99.90;;;;;;5056235;28;20177;-64
2022/04/10 00:46:29;;;;;;;7.10;5.77;;;7.20;99.90;;;;;;5055978;28;20180;-64
2022/04/10 00:48:55;;;;;;;5.90;5.30;;;7.20;99.90;;;;;;5055707;28;20526;-63
2022/04/10 00:54:05;;;;;;;9.30;5.90;;;7.10;99.90;;;;;;5055845;28;20180;-64
2022/04/10 00:56:31;;;;;;;7.50;5.80;;;7.10;99.90;;;;;;5055542;28;20220;-64
2022/04/10 00:58:57;;;;;;;9.00;5.50;;;7.10;99.90;;;;;;5055833;28;20173;-63
2022/04/10 01:01:22;;;;;;;10.17;6.13;;;7.20;99.90;;;;;;5055778;28;20169;-64
2022/04/10 01:03:48;;;;;;;9.13;5.90;;;7.10;99.90;;;;;;5055336;28;20260;-64
2022/04/10 01:06:14;;;;;;;8.93;6.37;;;6.90;99.90;;;;;;5055823;28;20165;-64
2022/04/10 01:08:39;;;;;;;9.03;6.10;;;6.90;99.90;;;;;;5055838;28;20184;-65
2022/04/10 01:11:06;;;;;;;8.07;6.03;;;6.80;99.90;;;;;;5055715;28;20180;-63
2022/04/10 01:13:32;;;;;;;9.43;6.07;;;6.80;99.90;;;;;;5055559;28;20180;-64
2022/04/10 01:15:58;;;;;;;11.87;6.10;;;6.80;99.90;;;;;;5054872;28;20205;-63
2022/04/10 01:18:25;;;;;;;9.33;6.13;;;6.80;99.90;;;;;;5055150;28;20172;-64
2022/04/10 01:20:51;;;;;;;10.80;6.03;;;6.70;99.90;;;;;;5055511;28;20184;-65
2022/04/10 01:23:17;;;;;;;8.50;6.20;;;6.60;99.90;;;;;;5055506;28;20635;-64
2022/04/10 01:25:44;;;;;;;8.50;5.43;;;6.60;99.90;;;;;;5055822;28;20242;-64
2022/04/10 01:28:13;;;;;;;9.30;6.10;;;6.70;99.90;;;;;;5055713;28;20169;-63
2022/04/10 01:30:39;;;;;;;8.90;6.47;;;6.60;99.90;;;;;;5055401;28;20173;-63
2022/04/10 01:33:05;;;;;;;14.17;6.57;;;6.70;99.90;;;;;;5054917;28;20227;-63
2022/04/10 01:35:32;;;;;;;8.83;6.30;;;6.70;99.90;;;;;;5055073;28;20212;-63
2022/04/10 01:37:59;;;;;;;9.80;6.13;;;6.60;99.90;;;;;;5055409;28;20173;-64
2022/04/10 01:40:25;;;;;;;8.97;6.70;;;6.70;99.90;;;;;;5055239;28;20193;-64
2022/04/10 01:42:50;;;;;;;12.10;6.50;;;6.60;99.90;;;;;;5054972;28;20197;-64
2022/04/10 01:45:16;;;;;;;7.47;6.20;;;6.50;99.90;;;;;;5054911;28;20352;-64
2022/04/10 01:47:41;;;;;;;9.50;6.23;;;6.50;99.90;;;;;;5054778;28;20197;-63
2022/04/10 01:50:08;;;;;;;10.43;6.20;;;6.40;99.90;;;;;;5055031;28;20176;-64
2022/04/10 01:52:33;;;;;;;10.77;7.00;;;6.30;99.90;;;;;;5054888;28;20252;-64
2022/04/10 01:54:59;;;;;;;9.40;6.57;;;6.20;99.90;;;;;;5054577;28;20304;-65
2022/04/10 01:57:24;;;;;;;8.53;6.60;;;6.10;99.90;;;;;;5054953;28;20181;-64
2022/04/10 01:59:50;;;;;;;9.80;7.13;;;6.10;99.90;;;;;;5054849;28;20209;-63
2022/04/10 02:02:15;;;;;;;9.20;6.40;;;6.20;99.90;;;;;;5054360;28;20583;-63
2022/04/10 02:04:41;;;;;;;11.67;6.80;;;6.20;99.90;;;;;;5054682;28;20280;-64
2022/04/10 02:07:06;;;;;;;10.17;7.00;;;6.20;99.90;;;;;;5054761;28;20618;-64
2022/04/10 02:09:32;;;;;;;9.03;6.70;;;6.20;99.90;;;;;;5054616;28;20192;-64
2022/04/10 02:11:58;;;;;;;12.00;7.37;;;6.20;99.90;;;;;;5054578;28;20238;-64
2022/04/10 02:14:23;;;;;;;9.80;7.27;;;6.10;99.90;;;;;;5054338;28;20551;-63
2022/04/10 02:16:49;;;;;;;11.87;7.20;;;6.00;99.90;;;;;;5053973;28;20181;-63
2022/04/10 02:19:14;;;;;;;11.10;7.63;;;6.00;99.90;;;;;;5054364;28;20174;-64
2022/04/10 02:21:40;;;;;;;12.20;6.73;;;6.00;99.90;;;;;;5054448;28;20255;-64
2022/04/10 02:24:06;;;;;;;12.80;7.53;;;5.90;99.90;;;;;;5054169;28;20173;-64
2022/04/10 02:26:31;;;;;;;24.60;8.33;;;5.80;99.90;;;;;;5054077;28;20181;-64
2022/04/10 02:28:57;;;;;;;10.03;7.13;;;5.80;99.90;;;;;;5053501;28;20170;-64
2022/04/10 02:31:23;;;;;;;7.77;6.97;;;5.70;99.90;;;;;;5053841;28;20173;-63
2022/04/10 02:33:48;;;;;;;10.83;7.07;;;5.60;99.90;;;;;;5054021;28;20178;-64
2022/04/10 02:36:16;;;;;;;10.00;7.53;;;5.60;99.90;;;;;;5054016;28;20220;-64
2022/04/10 02:38:42;;;;;;;15.37;7.97;;;5.60;99.90;;;;;;5054306;28;20229;-64
2022/04/10 02:41:08;;;;;;;10.57;7.67;;;5.60;99.90;;;;;;5053912;28;20182;-64
2022/04/10 02:43:33;;;;;;;14.93;7.80;;;5.50;99.90;;;;;;5053766;28;20180;-64
2022/04/10 02:45:59;;;;;;;13.70;8.03;;;5.50;99.90;;;;;;5053349;28;20190;-64
2022/04/10 02:48:25;;;;;;;9.60;7.40;;;5.50;99.90;;;;;;5053921;28;20165;-65
2022/04/10 02:50:50;;;;;;;14.60;7.87;;;5.50;99.90;;;;;;5053909;28;20255;-64
2022/04/10 02:53:16;;;;;;;11.80;7.83;;;5.50;99.90;;;;;;5053714;28;20524;-65
2022/04/10 02:55:41;;;;;;;15.87;8.00;;;5.50;99.90;;;;;;5053328;28;20239;-63
2022/04/10 02:58:07;;;;;;;13.67;7.80;;;5.50;99.90;;;;;;5053638;28;20617;-63
2022/04/10 03:00:32;;;;;;;13.93;7.87;;;5.50;99.90;;;;;;5053384;28;20559;-64
2022/04/10 03:02:58;;;;;;;14.97;8.47;;;5.50;99.90;;;;;;5053742;28;20537;-64
2022/04/10 03:05:24;;;;;;;12.03;8.33;;;5.50;99.90;;;;;;5053525;28;20172;-63
2022/04/10 03:07:50;;;;;;;13.07;8.90;;;5.40;99.90;;;;;;5053724;28;20247;-64
2022/04/10 03:10:15;;;;;;;14.80;8.40;;;5.40;99.90;;;;;;5053606;28;20169;-64
2022/04/10 03:12:41;;;;;;;13.27;7.77;;;5.40;99.90;;;;;;5053168;28;20200;-63
2022/04/10 03:15:07;;;;;;;11.20;7.97;;;5.40;99.90;;;;;;5053073;28;20248;-65
2022/04/10 03:17:33;;;;;;;11.23;7.93;;;5.40;99.90;;;;;;5053351;28;20665;-64
2022/04/10 03:19:58;;;;;;;17.17;8.70;;;5.40;99.90;;;;;;5053501;28;20169;-65
2022/04/10 03:22:24;;;;;;;16.00;8.67;;;5.40;99.90;;;;;;5053117;28;20165;-62
2022/04/10 03:24:49;;;;;;;14.53;8.37;;;5.30;99.90;;;;;;5053189;28;20166;-63
2022/04/10 03:27:15;;;;;;;12.73;8.73;;;5.30;99.90;;;;;;5053116;28;20220;-63
2022/04/10 03:29:40;;;;;;;12.03;8.00;;;5.30;99.90;;;;;;5052793;28;20169;-63
2022/04/10 03:32:06;;;;;;;13.33;8.07;;;5.30;99.90;;;;;;5053116;28;20238;-63
2022/04/10 03:34:32;;;;;;;13.97;8.97;;;5.20;99.90;;;;;;5053170;28;20208;-63
2022/04/10 03:36:58;;;;;;;16.27;8.70;;;5.30;99.90;;;;;;5053172;28;20169;-63
2022/04/10 03:39:23;;;;;;;16.53;8.33;;;5.30;99.90;;;;;;5053171;28;20574;-64
2022/04/10 03:41:49;;;;;;;13.33;8.50;;;5.20;99.90;;;;;;5052830;28;20223;-64
2022/04/10 03:44:15;;;;;;;9.37;8.27;;;5.20;99.90;;;;;;5052209;28;20181;-64
2022/04/10 03:46:40;;;;;;;13.73;9.27;;;5.20;99.90;;;;;;5052603;28;20181;-63
2022/04/10 03:49:07;;;;;;;13.60;8.77;;;5.20;99.90;;;;;;5053093;28;20184;-63
2022/04/10 03:51:32;;;;;;;17.17;8.73;;;5.10;99.90;;;;;;5052941;28;20679;-63
2022/04/10 03:53:58;;;;;;;16.53;9.10;;;5.10;99.90;;;;;;5052745;28;20174;-64
2022/04/10 03:56:24;;;;;;;12.47;9.43;;;5.10;99.90;;;;;;5052693;28;20229;-62
2022/04/10 03:58:49;;;;;;;16.10;9.03;;;5.00;99.90;;;;;;5052389;28;20597;-63
2022/04/10 04:01:15;;;;;;;13.40;8.80;;;5.00;99.90;;;;;;5052549;28;20177;-63
2022/04/10 04:03:40;;;;;;;17.47;9.70;;;5.00;99.90;;;;;;5052677;28;20227;-63
2022/04/10 04:06:06;;;;;;;15.53;9.93;;;5.00;99.90;;;;;;5052798;28;20200;-64
2022/04/10 04:08:33;;;;;;;14.93;8.80;;;4.90;99.90;;;;;;5052819;28;20256;-64
2022/04/10 04:10:58;;;;;;;13.43;9.13;;;4.90;99.90;;;;;;5052634;28;20237;-63
2022/04/10 04:13:25;;;;;;;19.13;9.03;;;4.80;99.90;;;;;;5052095;28;20632;-62
2022/04/10 04:15:51;;;;;;;16.83;9.00;;;4.80;99.90;;;;;;5052334;28;20231;-64
2022/04/10 04:18:17;;;;;;;13.47;8.47;;;4.80;99.90;;;;;;5052557;28;20239;-62
2022/04/10 04:20:42;;;;;;;16.07;8.87;;;4.80;99.90;;;;;;5052840;28;20177;-63
2022/04/10 04:23:08;;;;;;;16.90;9.10;;;4.80;99.90;;;;;;5052532;28;20170;-64
2022/04/10 04:25:34;;;;;;;12.50;8.47;;;4.70;99.90;;;;;;5051995;28;20184;-63
2022/04/10 04:27:59;;;;;;;13.73;8.83;;;4.80;99.90;;;;;;5052300;28;20170;-63
2022/04/10 04:30:25;;;;;;;16.20;9.60;;;4.80;99.90;;;;;;5052602;28;20169;-63
2022/04/10 04:32:53;;;;;;;14.80;9.37;;;4.80;99.90;;;;;;5052488;28;20166;-63
2022/04/10 04:35:19;;;;;;;16.50;9.37;;;4.70;99.90;;;;;;5052360;28;20213;-64
2022/04/10 04:37:44;;;;;;;13.03;9.07;;;4.70;99.90;;;;;;5052835;28;20176;-63
2022/04/10 04:40:11;;;;;;;15.63;9.80;;;4.70;99.90;;;;;;5052437;28;20185;-63
2022/04/10 04:42:37;;;;;;;15.47;9.30;;;4.70;99.90;;;;;;5051556;28;20200;-63
2022/04/10 04:45:04;;;;;;;20.27;9.50;;;4.70;99.90;;;;;;5051855;28;20193;-64
2022/04/10 04:47:30;;;;;;;17.60;10.30;;;4.60;99.90;;;;;;5052328;28;20323;-63
2022/04/10 04:49:55;;;;;;;18.80;9.10;;;4.60;99.90;;;;;;5052309;28;20708;-62
2022/04/10 04:52:21;;;;;;;13.77;9.30;;;4.70;99.90;;;;;;5055263;28;20173;-64
2022/04/10 04:54:47;;;;;;;13.77;9.77;;;4.70;99.90;;;;;;5055597;28;20219;-64
2022/04/10 04:57:12;;;;;;;19.70;10.07;;;4.70;99.90;;;;;;5055311;28;20251;-63
2022/04/10 04:59:38;;;;;;;13.50;9.77;;;4.60;99.90;;;;;;5056054;28;20174;-63
2022/04/10 05:02:04;;;;;;;18.83;9.93;;;4.70;99.90;;;;;;5055518;28;20169;-63
2022/04/10 05:04:29;;;;;;;16.10;9.10;;;4.70;99.90;;;;;;5055651;28;20256;-63
2022/04/10 05:06:55;;;;;;;16.57;9.40;;;4.70;99.90;;;;;;5055510;28;20517;-64
2022/04/10 05:09:20;;;;;;;18.20;9.47;;;4.70;99.90;;;;;;5055554;28;20191;-63
2022/04/10 05:11:46;;;;;;;15.43;9.80;;;4.70;99.90;;;;;;5055220;28;20319;-63
2022/04/10 05:14:12;;;;;;;17.47;9.33;;;4.80;99.90;;;;;;5055184;28;20173;-63
2022/04/10 05:16:37;;;;;;;14.13;9.20;;;4.80;99.90;;;;;;5055517;28;20177;-62
2022/04/10 05:19:03;;;;;;;19.17;9.80;;;4.90;99.90;;;;;;5055293;28;20173;-63
2022/04/10 05:21:28;;;;;;;18.63;9.30;;;5.20;99.90;;;;;;5055748;28;20177;-63
2022/04/10 05:23:54;;;;;;;14.83;8.93;;;5.50;99.90;;;;;;5055319;28;20162;-64
2022/04/10 05:26:20;;;;;;;15.87;8.80;;;5.90;99.90;;;;;;5054976;28;20563;-63
2022/04/10 05:28:45;;;;;;;18.63;8.57;;;6.50;99.90;;;;;;5055279;28;20173;-63
2022/04/10 05:31:11;;;;;;;12.87;8.50;;;7.30;99.90;;;;;;5054972;28;20200;-64
2022/04/10 05:33:36;;;;;;;14.07;7.50;;;8.20;99.90;;;;;;5054885;28;20256;-63
2022/04/10 05:36:02;;;;;;;13.03;7.20;;;8.90;99.90;;;;;;5054889;28;20215;-63
2022/04/10 05:38:28;;;;;;;11.07;7.50;;;9.50;99.90;;;;;;5055267;28;20173;-64
2022/04/10 05:40:54;;;;;;;13.47;8.23;;;9.60;99.90;;;;;;5054588;28;20170;-64
2022/04/10 05:43:20;;;;;;;14.03;7.20;;;10.10;99.90;;;;;;5054357;28;20223;-64
2022/04/10 05:45:47;;;;;;;14.53;7.40;;;10.50;99.90;;;;;;5054564;28;20272;-64
2022/04/10 05:48:12;;;;;;;9.97;7.10;;;10.80;99.90;;;;;;5054827;28;20239;-63
2022/04/10 05:50:38;;;;;;;12.90;7.90;;;10.70;99.90;;;;;;5054918;28;20528;-64
2022/04/10 05:53:04;;;;;;;15.80;7.90;;;10.60;99.90;;;;;;5054607;28;20260;-64
2022/04/10 05:55:30;;;;;;;16.63;7.50;;;10.80;99.90;;;;;;5053940;28;20254;-64
2022/04/10 05:57:56;;;;;;;12.87;7.40;;;11.40;99.90;;;;;;5053100;28;20178;-64
2022/04/10 06:00:23;;;;;;;10.83;7.17;;;12.40;98.90;;;;;;5054650;28;20173;-64
2022/04/10 06:02:50;;;;;;;14.27;7.47;;;13.10;95.90;;;;;;5053486;28;20209;-63
2022/04/10 06:05:15;;;;;;;11.33;6.90;;;12.60;96.20;;;;;;5054082;28;20183;-62
2022/04/10 06:07:41;;;;;;;11.13;7.30;;;13.30;94.80;;;;;;5054367;28;20263;-64
2022/04/10 06:10:08;;;;;;;12.10;7.17;;;13.30;93.70;;;;;;5054324;28;20173;-64
2022/04/10 06:12:33;;;;;;;13.93;7.43;;;13.60;92.60;;;;;;5054235;28;20264;-63
2022/04/10 06:14:59;;;;;;;13.53;7.30;;;13.50;92.60;;;;;;5054364;28;20295;-63
2022/04/10 06:17:24;;;;;;;13.43;7.53;;;13.10;93.10;;;;;;5054453;28;20173;-64
2022/04/10 06:19:50;;;;;;;12.33;7.10;;;13.10;92.90;;;;;;5054228;28;20161;-64
2022/04/10 06:22:16;;;;;;;10.67;6.97;;;12.30;94.30;;;;;;5054171;28;20640;-64
2022/04/10 06:24:41;;;;;;;12.47;7.23;;;12.80;94.60;;;;;;5053776;28;20625;-64
2022/04/10 06:27:07;;;;;;;10.13;7.03;;;13.20;94.00;;;;;;5053948;28;20628;-62
2022/04/10 06:29:32;;;;;;;11.37;6.87;;;13.40;92.70;;;;;;5053859;28;20693;-62
2022/04/10 06:31:58;;;;;;;12.90;7.67;;;13.10;93.10;;;;;;5054329;28;20169;-64
2022/04/10 06:34:24;;;;;;;10.47;7.43;;;13.10;92.70;;;;;;5053795;28;20543;-64
2022/04/10 06:36:49;;;;;;;15.43;7.90;;;13.30;93.00;;;;;;5053084;28;20177;-64
2022/04/10 06:39:18;;;;;;;11.37;7.13;;;12.90;92.60;;;;;;5054368;28;20173;-64
2022/04/10 06:41:44;;;;;;;12.13;8.20;;;12.70;94.00;;;;;;5053656;28;20200;-64
2022/04/10 06:44:10;;;;;;;16.77;8.00;;;12.30;94.00;;;;;;5053673;28;20274;-63
2022/04/10 06:46:36;;;;;;;16.23;7.83;;;11.80;96.80;;;;;;5053822;28;20177;-64
2022/04/10 06:49:01;;;;;;;10.17;7.33;;;12.10;96.60;;;;;;5052926;28;20165;-64
2022/04/10 06:51:27;;;;;;;14.67;7.87;;;12.30;96.10;;;;;;5053558;28;20169;-64
2022/04/10 06:53:53;;;;;;;10.63;7.53;;;12.70;95.40;;;;;;5053509;28;20201;-64
2022/04/10 06:56:18;;;;;;;13.47;8.40;;;12.40;94.80;;;;;;5053040;28;20326;-64
2022/04/10 06:58:44;;;;;;;12.50;7.83;;;12.40;95.50;;;;;;5053371;28;20172;-64
2022/04/10 07:01:10;;;;;;;12.20;7.90;;;12.30;96.00;;;;;;5053375;28;20177;-64
2022/04/10 07:03:36;;;;;;;11.63;7.63;;;12.80;95.20;;;;;;5052450;28;20173;-64
2022/04/10 07:06:01;;;;;;;12.30;8.13;;;13.10;95.00;;;;;;5052755;28;20633;-63
2022/04/10 07:08:27;;;;;;;13.33;7.10;;;13.80;92.90;;;;;;5053187;28;20238;-63
2022/04/10 07:10:53;;;;;;;11.97;7.23;;;13.90;92.40;;;;;;5053079;28;20234;-63
2022/04/10 07:13:21;;;;;;;10.23;7.70;;;13.40;91.90;;;;;;5053020;28;20220;-64
2022/04/10 07:15:48;;;;;;;13.17;7.33;;;13.80;91.90;;;;;;5052682;28;20223;-65
2022/04/10 07:18:14;;;;;;;12.43;7.33;;;13.70;91.60;;;;;;5052443;28;20728;-63
2022/04/10 07:20:40;;;;;;;14.70;7.77;;;13.80;91.90;;;;;;5052895;28;20185;-64
2022/04/10 07:25:49;;;;;;;10.07;7.33;;;15.00;89.80;;;;;;5052933;28;20532;-64
2022/04/10 07:28:15;;;;;;;12.00;7.93;;;16.70;81.90;;;;;;5052966;28;20169;-66
2022/04/10 07:30:41;;;;;;;11.13;7.78;;;18.50;72.70;;;;;;5052543;28;20657;-67
2022/04/10 07:33:07;;;;;;;13.23;7.55;;;19.90;65.00;;;;;;5052634;28;20173;-66
2022/04/10 07:35:34;;;;;;;11.80;7.47;;;21.00;99.90;;;;;;5052347;28;20244;-67
2022/04/10 07:38:00;;;;;;;13.60;8.05;;;21.30;99.90;;;;;;5053130;28;20169;-66
2022/04/10 07:40:26;;;;;;;10.55;7.20;;;22.30;99.90;;;;;;5052679;28;20250;-67
2022/04/10 07:42:52;;;;;;;12.30;7.57;;;22.60;99.90;;;;;;5052330;28;20231;-64
2022/04/10 07:48:22;;;;;;;10.43;7.35;;;23.30;99.90;;;;;;5010264;28;20171;-66
2022/04/10 07:50:48;;;;;;;12.88;7.95;;;23.80;99.90;;;;;;5010661;28;20186;-65
2022/04/10 07:53:13;;;;;;;10.95;7.70;;;24.40;99.90;;;;;;5010912;28;20509;-65
2022/04/10 07:55:39;;;;;;;15.52;7.85;;;23.90;99.90;;;;;;5010452;28;20329;-65
2022/04/10 07:58:04;;;;;;;13.55;8.10;;;22.60;99.90;;;;;;5010616;28;20205;-65
2022/04/10 08:00:32;;;;;;;13.05;7.82;;;24.00;99.90;;;;;;5010328;28;20211;-65
2022/04/10 08:02:59;;;;;;;9.70;7.88;;;24.30;99.90;;;;;;5010315;28;20170;-65
2022/04/10 08:05:24;;;;;;;12.48;8.07;;;24.40;99.90;;;;;;5010246;28;20186;-66
2022/04/10 08:07:50;;;;;;;9.38;7.90;;;24.00;99.90;;;;;;5011050;28;20241;-66
2022/04/10 08:10:16;;;;;;;9.77;8.02;;;24.50;99.90;;;;;;5010480;28;20653;-66
2022/04/10 08:12:42;;;;;;;12.32;8.20;;;25.10;99.90;;;;;;5010132;28;20543;-66
2022/04/10 08:15:09;;;;;;;12.40;8.30;;;25.00;99.90;;;;;;5010564;28;20210;-67
2022/04/10 08:17:35;;;;;;;10.05;8.00;;;24.50;99.90;;;;;;5009794;28;20695;-66
2022/04/10 08:20:05;;;;;;;10.80;7.97;;;24.50;99.90;;;;;;5047018;28;20276;-66
2022/04/10 08:22:34;;;;;;;10.45;8.30;;;24.20;99.90;;;;;;5052165;28;20223;-65
2022/04/10 08:25:02;;;;;;;10.20;8.00;;;24.20;99.90;;;;;;5052106;28;20166;-66
2022/04/10 08:27:29;;;;;;;8.52;7.45;;;24.30;99.90;;;;;;5055669;28;20192;-67
2022/04/10 08:29:54;;;;;;;13.48;8.25;;;24.30;99.90;;;;;;5056247;28;20226;-66
2022/04/10 08:32:20;;;;;;;13.20;8.65;;;24.70;99.40;;;;;;5055670;28;20215;-65
2022/04/10 08:34:46;;;;;;;13.25;8.27;;;25.10;96.70;;;;;;5055385;28;20681;-66
2022/04/10 08:37:11;;;;;;;11.88;8.57;;;24.40;95.70;;;;;;5056002;28;20176;-65
2022/04/10 08:39:37;;;;;;;11.52;8.77;;;24.60;94.90;;;;;;5055562;28;20660;-66
2022/04/10 08:42:04;;;;;;;9.60;8.25;;;25.30;94.80;;;;;;5056310;28;20629;-66
2022/04/10 08:44:31;;;;;;;10.75;8.23;;;25.40;93.80;;;;;;5055902;28;20193;-66
2022/04/10 08:46:58;;;;;;;10.07;7.10;;;25.20;91.80;;;;;;5055065;28;20675;-66
2022/04/10 08:49:31;;;;;;;12.88;7.55;;;25.20;93.00;;;;;;5054960;28;20184;-66
2022/04/10 08:51:59;;;;;;;8.48;6.72;;;25.80;86.40;;;;;;5056096;28;20621;-66
2022/04/10 08:54:27;;;;;;;11.10;7.43;;;25.90;82.30;;;;;;5055474;28;20185;-67
2022/04/10 08:56:54;;;;;;;12.55;7.35;;;26.70;78.40;;;;;;5055540;28;20229;-65
2022/04/10 08:59:21;;;;;;;11.43;6.90;;;26.00;78.60;;;;;;5055324;28;20204;-67
2022/04/10 09:01:52;;;;;;;8.75;6.68;;;25.50;72.60;;;;;;5054878;28;20177;-67
2022/04/10 09:04:20;;;;;;;11.57;6.68;;;24.90;71.80;;;;;;5055232;28;20176;-66
2022/04/10 09:06:58;;;;;;;9.38;7.03;;;25.50;74.60;;;;;;5055526;28;20205;-67
2022/04/10 09:09:24;;;;;;;9.00;6.07;;;26.20;69.40;;;;;;5055577;28;20208;-67
2022/04/10 09:11:54;;;;;;;7.05;5.60;;;26.10;61.10;;;;;;5054971;28;20705;-67
2022/04/10 09:14:36;;;;;;;8.63;5.22;;;25.80;57.70;;;;;;5055231;28;20256;-67
2022/04/10 09:17:13;;;;;;;7.45;5.30;;;25.80;57.90;;;;;;5055004;28;20169;-66
2022/04/10 09:19:44;;;;;;;7.22;4.82;;;26.50;56.00;;;;;;5054852;28;20184;-66
2022/04/10 09:22:29;;;;;;;5.85;4.60;;;26.40;52.90;;;;;;5055172;28;20158;-66
2022/04/10 09:25:16;;;;;;;5.93;4.07;;;26.80;48.90;;;;;;5055050;28;20172;-67
2022/04/10 09:27:44;;;;;;;4.97;3.47;;;26.30;47.60;;;;;;5054657;28;20629;-67
2022/04/10 09:30:12;;;;;;;5.90;3.45;;;26.70;43.60;;;;;;5055069;28;20232;-65
2022/04/10 09:32:38;;;;;;;4.47;3.25;;;25.70;42.10;;;;;;5054234;28;20620;-66
2022/04/10 09:35:04;;;;;;;3.50;3.20;;;25.40;41.50;;;;;;5054739;28;20223;-66
2022/04/10 09:37:40;;;;;;;3.92;3.40;;;25.50;38.70;;;;;;5054487;28;20169;-65
2022/04/10 09:40:28;;;;;;;7.05;3.92;;;25.80;35.90;;;;;;5054618;28;20173;-66
2022/04/10 09:43:05;;;;;;;4.10;3.47;;;26.00;39.70;;;;;;5054423;28;20177;-66
2022/04/10 09:45:40;;;;;;;5.40;3.70;;;26.20;36.50;;;;;;5053938;28;20197;-66
2022/04/10 09:48:21;;;;;;;5.78;3.83;;;24.40;41.30;;;;;;5053286;28;20587;-67
2022/04/10 09:50:48;;;;;;;4.45;3.85;;;24.30;40.40;;;;;;5054897;28;20176;-66
2022/04/10 09:53:14;;;;;;;4.25;3.65;;;25.30;41.20;;;;;;5054454;28;20582;-66
2022/04/10 09:55:42;;;;;;;4.43;3.92;;;25.60;34.50;;;;;;5054189;28;20238;-66
2022/04/10 09:58:10;;;;;;;4.68;4.20;;;24.70;37.30;;;;;;5054160;28;20180;-65
2022/04/10 10:00:56;;;;;;;7.78;4.00;;;24.30;37.20;;;;;;5052922;28;20264;-67
2022/04/10 10:03:24;;;;;;;4.50;3.72;;;23.90;38.90;;;;;;5054326;28;20175;-64
2022/04/10 10:05:50;;;;;;;4.82;3.83;;;24.10;37.50;;;;;;5054525;28;20212;-65
2022/04/10 10:08:17;;;;;;;4.57;4.15;;;24.70;37.90;;;;;;5053846;28;20268;-65
2022/04/10 10:10:43;;;;;;;4.50;4.10;;;24.10;33.70;;;;;;5053818;28;20188;-66
2022/04/10 10:13:09;;;;;;;5.70;4.60;;;24.90;35.20;;;;;;5053723;28;20251;-66
2022/04/10 10:15:35;;;;;;;4.70;4.35;;;25.20;34.00;;;;;;5053646;28;20759;-66
2022/04/10 10:18:02;;;;;;;6.00;4.47;;;25.20;34.30;;;;;;5053910;28;20267;-66
2022/04/10 10:20:29;;;;;;;5.90;4.05;;;25.40;28.40;;;;;;5053941;28;20188;-65
2022/04/10 10:22:55;;;;;;;4.22;3.70;;;25.70;30.70;;;;;;5054042;28;20173;-65
2022/04/10 10:25:27;;;;;;;4.57;4.22;;;25.80;31.70;;;;;;5054017;28;20260;-66
2022/04/10 10:28:04;;;;;;;4.38;3.95;;;25.90;30.00;;;;;;5053589;28;20157;-66
2022/04/10 10:31:11;;;;;;;6.32;4.88;;;25.60;30.30;;;;;;5053495;28;20165;-65
2022/04/10 10:33:38;;;;;;;5.78;4.85;;;24.70;30.30;;;;;;5054023;28;20181;-65
2022/04/10 10:36:08;;;;;;;6.88;5.15;;;23.20;33.10;;;;;;5053948;28;20668;-66
2022/04/10 10:38:34;;;;;;;5.68;4.68;;;22.30;33.20;;;;;;5053767;28;20176;-66
2022/04/10 10:41:12;;;;;;;5.15;4.65;;;22.00;38.10;;;;;;5053609;28;20177;-64
2022/04/10 10:43:38;;;;;;;5.10;4.53;;;22.70;40.10;;;;;;5052968;28;20488;-65
2022/04/10 10:46:18;;;;;;;6.18;4.85;;;23.30;38.40;;;;;;5053700;28;20283;-66
2022/04/10 10:48:44;;;;;;;5.20;3.90;;;23.70;36.40;;;;;;5052448;28;20169;-66
2022/04/10 10:51:10;;;;;;;4.22;3.92;;;24.20;32.10;;;;;;5053312;28;20686;-65
2022/04/10 10:53:57;;;;;;;4.65;4.13;;;24.00;30.80;;;;;;5053289;28;20169;-66
2022/04/10 10:56:37;;;;;;;4.97;4.43;;;24.20;32.80;;;;;;5052496;28;20251;-67
2022/04/10 10:59:23;;;;;;;5.60;4.63;;;24.20;30.90;;;;;;5052501;28;20173;-67
2022/04/10 11:01:55;;;;;;;5.38;3.20;;;23.60;35.40;;;;;;5053068;28;20173;-66
2022/04/10 11:04:21;;;;;;;5.50;2.70;;;24.20;31.90;;;;;;5052746;28;20185;-66
2022/04/10 11:06:47;;;;;;;3.65;2.97;;;24.70;29.10;;;;;;5053287;28;20248;-65
2022/04/10 11:09:27;;;;;;;2.60;2.40;;;24.40;27.00;;;;;;5053410;28;20184;-65
2022/04/10 11:11:55;;;;;;;3.88;2.70;;;23.90;28.00;;;;;;5052901;28;20165;-66
2022/04/10 11:14:39;;;;;;;4.90;2.95;;;24.50;26.90;;;;;;5052470;28;20610;-65
2022/04/10 11:17:16;;;;;;;4.03;3.13;;;24.70;26.60;;;;;;5052859;28;20621;-65
2022/04/10 11:19:54;;;;;;;3.83;2.85;;;24.30;26.60;;;;;;5052782;28;20226;-65
2022/04/10 11:22:25;;;;;;;4.32;3.50;;;23.10;28.60;;;;;;5052956;28;20555;-63
2022/04/10 11:24:58;;;;;;;3.45;3.10;;;22.30;29.80;;;;;;5052297;28;20180;-64
2022/04/10 11:27:48;;;;;;;4.13;3.28;;;21.60;32.20;;;;;;5052053;28;20260;-64
2022/04/10 11:30:19;;;;;;;3.78;2.83;;;22.50;29.50;;;;;;5052907;28;20675;-63
2022/04/10 11:32:50;;;;;;;3.28;2.90;;;22.90;32.30;;;;;;5053046;28;20165;-65
2022/04/10 11:35:21;;;;;;;3.55;2.85;;;23.70;30.30;;;;;;5052609;28;20197;-64
2022/04/10 11:37:49;;;;;;;4.93;2.83;;;24.20;26.80;;;;;;5052660;28;20176;-65
2022/04/10 11:40:20;;;;;;;3.20;2.90;;;24.10;26.00;;;;;;5052106;28;20520;-64
2022/04/10 11:42:46;;;;;;;3.10;2.85;;;22.80;26.50;;;;;;5052400;28;20170;-65
2022/04/10 11:45:11;;;;;;;4.03;3.03;;;21.80;27.80;;;;;;5052410;28;20207;-66
2022/04/10 11:47:39;;;;;;;4.53;3.08;;;21.20;30.30;;;;;;5052539;28;20686;-65
2022/04/10 11:50:07;;;;;;;4.95;3.28;;;20.50;32.20;;;;;;5051601;28;20204;-66
2022/04/10 11:52:32;;;;;;;4.15;3.00;;;19.60;33.60;;;;;;5052477;28;20177;-65
2022/04/10 11:54:58;;;;;;;3.63;3.05;;;19.20;35.50;;;;;;5052218;28;20698;-65
2022/04/10 11:57:24;;;;;;;3.63;3.33;;;18.50;36.70;;;;;;5051863;28;20197;-64
2022/04/10 11:59:51;;;;;;;4.78;3.13;;;18.00;40.40;;;;;;5053257;28;20199;-64
2022/04/10 12:02:17;;;;;;;4.10;3.47;;;17.90;38.50;;;;;;5055804;28;20169;-65
2022/04/10 12:04:43;;;;;;;4.00;3.63;;;17.80;42.30;;;;;;5056056;28;20180;-65
2022/04/10 12:07:19;;;;;;;4.70;3.40;;;17.80;42.60;;;;;;5056744;28;20181;-64
2022/04/10 12:09:47;;;;;;;6.38;3.50;;;17.80;45.80;;;;;;5056397;28;20192;-65
2022/04/10 12:12:13;;;;;;;4.33;3.93;;;17.70;47.30;;;;;;5055235;28;20252;-64
2022/04/10 12:14:39;;;;;;;5.45;3.60;;;17.40;47.10;;;;;;5056562;28;20185;-65
2022/04/10 12:17:12;;;;;;;9.27;4.17;;;17.70;47.50;;;;;;5056568;28;20188;-64
2022/04/10 12:19:38;;;;;;;6.20;4.15;;;17.90;49.10;;;;;;5056521;28;20181;-64
2022/04/10 12:22:08;;;;;;;4.28;3.88;;;18.00;47.00;;;;;;5056252;28;20176;-63
2022/04/10 12:24:35;;;;;;;4.00;3.60;;;18.30;71.20;;;;;;5056094;28;20181;-65
2022/04/10 12:27:03;;;;;;;5.85;3.55;;;17.90;50.80;;;;;;5055790;28;20326;-66
2022/04/10 12:29:30;;;;;;;4.97;3.70;;;17.50;51.40;;;;;;5056372;28;20165;-64
2022/04/10 12:31:57;;;;;;;5.50;3.60;;;17.20;52.20;;;;;;5056419;28;20169;-65
2022/04/10 12:34:22;;;;;;;5.57;3.70;;;16.60;54.60;;;;;;5055601;28;20252;-64
2022/04/10 12:36:50;;;;;;;4.77;3.77;;;16.70;53.10;;;;;;5055850;28;20347;-64
2022/04/10 12:39:28;;;;;;;5.57;4.00;;;16.70;57.60;;;;;;5055256;28;20204;-64
2022/04/10 12:42:07;;;;;;;5.83;3.73;;;16.90;56.50;;;;;;5055895;28;20299;-65
2022/04/10 12:44:34;;;;;;;5.20;4.10;;;16.60;57.80;;;;;;5055717;28;20664;-65
2022/04/10 12:47:00;;;;;;;6.30;3.87;;;16.30;60.00;;;;;;5055906;28;20161;-64
2022/04/10 12:49:25;;;;;;;6.97;3.73;;;16.30;58.00;;;;;;5055383;28;20165;-65
2022/04/10 12:52:04;;;;;;;13.17;3.93;;;16.20;60.50;;;;;;5055072;28;20189;-64
2022/04/10 12:54:38;;;;;;;5.33;3.57;;;16.30;63.80;;;;;;5054980;28;20188;-65